Roth, North Dakota
Current Conditions -  °F | °C
As of 8:33 AM on Thursday 30 Oct 2014 (Local Time) from KMIB Reporting Station
Overcast Overcast  
Wind Chill: 24°   Ceiling: 1100
Heat Index: 32°   Visibility: 10mi
Dew Point: 32°   Wind: 10mph
Humidity: 100%   Direction: 360°N
Pressure: 30.29"   Gusts: NA
Location:  48.9505°N, 100.734°W
Report Text: KMIB 301333Z AUTO 36009KT 10SM OVC011 00/00 A3029 RMK AO2 CIG 006V011 CIG 007 RWY11 $
Loading
Personal Weather Stations






























Interactive Weather Map
Tropical Storm Tracking
New forecast layout! Learn more

10-Day Weather Forecast

Advertisements
Track Severe Weather on mobile